This is the latest recevied weather packets stored in our database for station/object SQ9SMC-13. If no packets are shown the sender has not sent any weather packets the latest 10 day(s).
| Time | Temp. | Humidity | Pressure | Rain* | Wind** | Luminosity | Snow |
|---|---|---|---|---|---|---|---|
| 1777635903 | 20.56° C | 39% | 1027.3 hPa | 0 mm | - | 652 W/m² | - |
| 1777635603 | 20° C | 40% | 1027.3 hPa | 0 mm | - | 630 W/m² | - |
| 1777635304 | 20° C | 39% | 1027.5 hPa | 0 mm | - | 640 W/m² | - |
| 1777635003 | 20° C | 38% | 1027.2 hPa | 0 mm | - | 642 W/m² | - |
| 1777634706 | 19.44° C | 40% | 1027.5 hPa | 0 mm | - | 647 W/m² | - |
| 1777634403 | 20° C | 39% | 1027.5 hPa | 0 mm | - | 649 W/m² | - |
| 1777634104 | 19.44° C | 40% | 1027.5 hPa | 0 mm | - | 653 W/m² | - |
| 1777633804 | 19.44° C | 39% | 1027.7 hPa | 0 mm | - | 653 W/m² | - |
| 1777633503 | 19.44° C | 40% | 1027.8 hPa | 0 mm | - | 650 W/m² | - |
| 1777633206 | 20° C | 39% | 1027.7 hPa | 0 mm | - | 651 W/m² | - |
| 1777632904 | 19.44° C | 39% | 1027.7 hPa | 0 mm | - | 663 W/m² | - |
| 1777632603 | 19.44° C | 39% | 1027.7 hPa | 0 mm | - | 666 W/m² | - |
| 1777632303 | 18.89° C | 41% | 1027.8 hPa | 0 mm | - | 656 W/m² | - |
| 1777632003 | 18.89° C | 39% | 1027.5 hPa | 0 mm | - | 657 W/m² | - |
| 1777631702 | 19.44° C | 41% | 1027.8 hPa | 0 mm | - | 649 W/m² | - |
| 1777631408 | 18.89° C | 40% | 1027.6 hPa | 0 mm | - | 643 W/m² | - |
| 1777631102 | 18.33° C | 41% | 1027.7 hPa | 0 mm | - | 651 W/m² | - |
| 1777630804 | 18.89° C | 39% | 1027.6 hPa | 0 mm | - | 645 W/m² | - |
| 1777630503 | 19.44° C | 38% | 1027.9 hPa | 0 mm | - | 645 W/m² | - |
| 1777630204 | 18.33° C | 41% | 1027.7 hPa | 0 mm | - | 642 W/m² | - |
| 1777629903 | 18.33° C | 38% | 1027.8 hPa | 0 mm | - | 638 W/m² | - |
| 1777629602 | 18.33° C | 39% | 1027.8 hPa | 0 mm | - | 634 W/m² | - |
| 1777629302 | 17.78° C | 40% | 1028 hPa | 0 mm | - | 632 W/m² | - |
| 1777629004 | 18.33° C | 39% | 1027.8 hPa | 0 mm | - | 623 W/m² | - |
| 1777628704 | 17.78° C | 41% | 1028.1 hPa | 0 mm | - | 622 W/m² | - |
* Rain latest hour (hover to see other rain measurements)
** Current wind speed in m/s (hover to see current wind gust speed)